Hlavní strana
METAR-TAF:

METAR-TAF

Letiště :

Mezinárodní letiště Čchung-čching Ťiang-pej

Čchung-čching, Čína

zeměpisná šířka: 29-31N, zeměpisná délka: 106-29E, výška: 351 m

Aktuální stav počasí

Zpráva byla vytvořena před 1 hodinou a 8 minutami, v 18:00 UTC
Jihojihovýchodní vítr 2 kt
Teplota 27°C
Vlhkost vzduchu 84%
Tlak 1007 hPa
Viditelnost 10 km a více
Žádná oblačnost pod 1500 m, nevyskytují se cumulonimby.

METAR: ZUCK 151800Z 16001MPS CAVOK 27/24 Q1007 NOSIG

Čas: 03:08 (19:08 UTC)

Předpověď počasí

Zpráva byla vytvořena před 3 hodinami a 54 minutami, v 15:14 UTC
Předpověď platná od 15 v 18 UTC do 16 v 18 UTC
Jihozápadní vítr 6 kt
Viditelnost: 5000 m
Polojasno ve výšce 3000 ft
kouřmo
Dočasný
od 15 v 22 UTC do 16 v 04 UTC
vítr z různých směrů 16 kt
Polojasno ve výšce 3000 ft
Skoro jasno ve výšce 4000 ft, Cumulonimbus.
bouřka, déšť

TAF: ZUCK 151514Z 1518/1618 23003MPS 5000 BR SCT030 TX32/1608Z TN25/1521Z TEMPO 1522/1604 VRB08MPS TSRA SCT030 FEW040CB

Stav a předpovědi počasí z více než 4 000 letišť (zprávy METAR a TAF).

Červené a žluté tečky na mapě představují dostupné meteorologické stanice.

Když kurzor umístíte na tečku, zobrazí se název stanice.

Pak kliknutím zobrazíte stav a předpověď počasí.

Chcete-li změnit mapu, kliknutím na zelené tlačítko se znaménkem +mapu přiblížíte, kliknutím na zelené tlačítko se znaménkem – mapu oddálíte a kliknutím na zelené šipky přejdete na sousední mapy.


METAR-TAF: